createdAt,value
2018-06-24T12:01:50.661Z,24.87
2018-06-24T12:06:55.061Z,24.90
2018-06-24T12:11:59.800Z,24.86
2018-06-24T12:17:04.264Z,24.85
2018-06-24T12:22:09.045Z,24.93
2018-06-24T12:27:13.370Z,25.04
2018-06-24T12:32:17.729Z,24.86
2018-06-24T12:37:22.324Z,24.82
2018-06-24T12:42:26.914Z,24.86
2018-06-24T12:47:31.869Z,24.86
2018-06-24T12:52:36.097Z,24.81
2018-06-24T12:57:40.554Z,24.46
2018-06-24T13:02:44.901Z,24.56
2018-06-24T13:07:49.174Z,24.63
2018-06-24T13:12:53.694Z,24.59
2018-06-24T13:17:58.130Z,24.50
2018-06-24T13:23:02.486Z,24.76
2018-06-24T13:28:07.033Z,24.64
2018-06-24T13:33:11.784Z,24.65
2018-06-24T13:38:16.289Z,24.60
2018-06-24T13:43:21.253Z,24.61
2018-06-24T13:48:25.592Z,24.49
2018-06-24T13:53:29.893Z,24.73
2018-06-24T13:58:34.249Z,24.63
2018-06-24T14:03:38.520Z,24.94
2018-06-24T14:08:43.010Z,24.99
2018-06-24T14:13:47.381Z,25.05
2018-06-24T14:18:51.022Z,25.03
2018-06-24T14:23:54.666Z,24.82
2018-06-24T14:28:58.650Z,24.83
2018-06-24T14:34:02.310Z,24.83
2018-06-24T14:39:09.399Z,24.89
2018-06-24T14:44:13.049Z,24.86
2018-06-24T14:49:16.869Z,24.80
2018-06-24T14:54:20.338Z,24.78
2018-06-24T14:59:23.729Z,24.76
2018-06-24T15:04:27.125Z,24.71
2018-06-24T15:09:30.624Z,24.68
2018-06-24T15:14:33.985Z,24.68
2018-06-24T15:19:37.396Z,24.65
2018-06-24T15:24:41.378Z,24.59
2018-06-24T15:29:45.749Z,24.61
2018-06-24T15:34:49.518Z,24.61
2018-06-24T15:39:52.948Z,24.60
2018-06-24T15:44:56.630Z,24.65
2018-06-24T15:50:04.846Z,25.13
2018-06-24T15:55:08.594Z,25.23
2018-06-24T16:00:12.286Z,25.06
2018-06-24T16:05:15.946Z,25.14
2018-06-24T16:10:20.244Z,25.25
2018-06-24T16:15:23.798Z,25.04
2018-06-24T16:20:27.615Z,24.90
2018-06-24T16:25:31.232Z,25.04
2018-06-24T16:30:34.714Z,25.29
2018-06-24T16:35:38.198Z,25.39
2018-06-24T16:40:41.633Z,25.47
2018-06-24T16:45:45.178Z,25.49
2018-06-24T16:50:48.813Z,25.43
2018-06-24T16:55:52.663Z,25.45
2018-06-24T17:00:56.971Z,25.42
2018-06-24T17:06:00.643Z,25.45
2018-06-24T17:11:04.410Z,25.47
2018-06-24T17:16:07.878Z,25.49
2018-06-24T17:21:11.349Z,25.50
2018-06-24T17:26:14.933Z,25.69
2018-06-24T17:31:18.694Z,25.60
2018-06-24T17:36:22.475Z,25.56
2018-06-24T17:41:26.294Z,25.57
2018-06-24T17:46:29.784Z,25.61
2018-06-24T17:51:33.556Z,25.57
2018-06-24T17:56:36.961Z,25.52
2018-06-24T18:01:40.441Z,25.55
2018-06-24T18:06:44.144Z,25.54
2018-06-24T18:11:47.817Z,25.59
2018-06-24T18:16:51.434Z,25.57
2018-06-24T18:21:54.859Z,25.57
2018-06-24T18:26:58.451Z,25.46
2018-06-24T18:32:01.861Z,25.42
2018-06-24T18:37:05.499Z,25.36
2018-06-24T18:42:09.168Z,25.29
2018-06-24T18:47:12.608Z,25.20
2018-06-24T18:52:16.027Z,25.11
2018-06-24T18:57:19.636Z,25.24
2018-06-24T19:02:23.366Z,25.17
2018-06-24T19:07:26.894Z,25.14
2018-06-24T19:12:30.352Z,25.15
2018-06-24T19:17:34.338Z,25.07
2018-06-24T19:22:37.842Z,25.05
2018-06-24T19:27:41.881Z,24.95
2018-06-24T19:32:45.578Z,24.91
2018-06-24T19:37:48.990Z,24.88
2018-06-24T19:42:52.774Z,24.86
2018-06-24T19:47:56.310Z,24.82
2018-06-24T19:52:59.834Z,24.85
2018-06-24T19:58:03.213Z,24.81
2018-06-24T20:03:07.114Z,24.80
2018-06-24T20:08:10.585Z,24.77
2018-06-24T20:13:14.029Z,24.75
2018-06-24T20:18:18.428Z,24.74
2018-06-24T20:23:21.879Z,24.73
2018-06-24T20:28:25.357Z,24.70
2018-06-24T20:33:28.972Z,24.71
2018-06-24T20:38:32.539Z,24.69
2018-06-24T20:43:36.046Z,24.68
2018-06-24T20:48:40.170Z,24.67
2018-06-24T20:53:43.950Z,24.67
2018-06-24T20:58:47.485Z,24.68
2018-06-24T21:03:50.899Z,24.66
2018-06-24T21:08:54.559Z,24.65
2018-06-24T21:13:58.023Z,24.63
2018-06-24T21:19:01.496Z,24.62
2018-06-24T21:24:04.913Z,24.64
2018-06-24T21:29:08.637Z,24.61
2018-06-24T21:34:12.166Z,24.61
2018-06-24T21:39:15.761Z,24.62
2018-06-24T21:44:19.281Z,24.61
2018-06-24T21:49:23.333Z,24.58
2018-06-24T21:54:26.721Z,24.59
2018-06-24T21:59:30.189Z,24.61
2018-06-24T22:04:33.683Z,24.59
2018-06-24T22:09:37.341Z,24.60
2018-06-24T22:14:40.854Z,24.61
2018-06-24T22:19:44.285Z,24.59
2018-06-24T22:24:47.797Z,24.59
2018-06-24T22:29:51.289Z,24.59
2018-06-24T22:34:54.982Z,24.59
2018-06-24T22:39:58.399Z,24.59
2018-06-24T22:45:01.819Z,24.59
2018-06-24T22:50:05.601Z,24.59
2018-06-24T22:55:09.158Z,24.60
2018-06-24T23:00:14.704Z,24.59
2018-06-24T23:05:18.314Z,24.58
2018-06-24T23:10:21.715Z,24.59
2018-06-24T23:15:25.190Z,24.59
2018-06-24T23:20:28.613Z,24.58
2018-06-24T23:25:32.265Z,24.56
2018-06-24T23:30:35.728Z,24.57
2018-06-24T23:35:39.207Z,24.61
2018-06-24T23:40:42.598Z,24.67
2018-06-24T23:45:46.036Z,24.70
2018-06-24T23:50:49.861Z,24.73
2018-06-24T23:55:53.312Z,24.70
